sensor_id;sensor_type;location;lat;lon;timestamp;temperature;humidity
32293;DHT22;43233;48.608;8.838;2024-01-27T00:00:56;4.20;58.00
32293;DHT22;43233;48.608;8.838;2024-01-27T00:03:22;4.20;58.20
32293;DHT22;43233;48.608;8.838;2024-01-27T00:05:47;4.10;58.40
32293;DHT22;43233;48.608;8.838;2024-01-27T00:08:13;4.10;58.70
32293;DHT22;43233;48.608;8.838;2024-01-27T00:10:38;4.00;59.10
32293;DHT22;43233;48.608;8.838;2024-01-27T00:13:04;4.00;59.30
32293;DHT22;43233;48.608;8.838;2024-01-27T00:15:29;4.00;59.50
32293;DHT22;43233;48.608;8.838;2024-01-27T00:17:55;3.90;59.70
32293;DHT22;43233;48.608;8.838;2024-01-27T00:20:21;3.90;59.90
32293;DHT22;43233;48.608;8.838;2024-01-27T00:22:46;3.80;60.00
32293;DHT22;43233;48.608;8.838;2024-01-27T00:25:12;3.80;60.30
32293;DHT22;43233;48.608;8.838;2024-01-27T00:27:38;3.80;60.70
32293;DHT22;43233;48.608;8.838;2024-01-27T00:30:04;3.70;61.10
32293;DHT22;43233;48.608;8.838;2024-01-27T00:32:33;3.70;61.20
32293;DHT22;43233;48.608;8.838;2024-01-27T00:34:59;3.70;62.00
32293;DHT22;43233;48.608;8.838;2024-01-27T00:37:24;3.60;62.20
32293;DHT22;43233;48.608;8.838;2024-01-27T00:39:51;3.70;62.40
32293;DHT22;43233;48.608;8.838;2024-01-27T00:42:17;3.70;62.30
32293;DHT22;43233;48.608;8.838;2024-01-27T00:44:44;3.60;62.20
32293;DHT22;43233;48.608;8.838;2024-01-27T00:47:09;3.60;62.30
32293;DHT22;43233;48.608;8.838;2024-01-27T00:49:35;3.50;63.20
32293;DHT22;43233;48.608;8.838;2024-01-27T00:52:01;3.50;62.70
32293;DHT22;43233;48.608;8.838;2024-01-27T00:54:26;3.50;62.90
32293;DHT22;43233;48.608;8.838;2024-01-27T00:56:52;3.60;62.60
32293;DHT22;43233;48.608;8.838;2024-01-27T00:59:18;3.50;62.30
32293;DHT22;43233;48.608;8.838;2024-01-27T01:01:43;3.50;62.20
32293;DHT22;43233;48.608;8.838;2024-01-27T01:04:09;3.40;62.00
32293;DHT22;43233;48.608;8.838;2024-01-27T01:06:34;3.30;62.00
32293;DHT22;43233;48.608;8.838;2024-01-27T01:09:00;3.30;62.10
32293;DHT22;43233;48.608;8.838;2024-01-27T01:11:26;3.20;62.30
32293;DHT22;43233;48.608;8.838;2024-01-27T01:13:51;3.20;62.80
32293;DHT22;43233;48.608;8.838;2024-01-27T01:16:17;3.20;62.60
32293;DHT22;43233;48.608;8.838;2024-01-27T01:18:43;3.10;63.00
32293;DHT22;43233;48.608;8.838;2024-01-27T01:21:08;3.10;63.10
32293;DHT22;43233;48.608;8.838;2024-01-27T01:23:34;3.10;63.30
32293;DHT22;43233;48.608;8.838;2024-01-27T01:26:00;3.10;63.50
32293;DHT22;43233;48.608;8.838;2024-01-27T01:28:25;3.10;63.70
32293;DHT22;43233;48.608;8.838;2024-01-27T01:30:51;3.10;63.70
32293;DHT22;43233;48.608;8.838;2024-01-27T01:33:16;3.20;63.70
32293;DHT22;43233;48.608;8.838;2024-01-27T01:35:42;3.20;63.70
32293;DHT22;43233;48.608;8.838;2024-01-27T01:38:08;3.10;63.50
32293;DHT22;43233;48.608;8.838;2024-01-27T01:40:34;3.10;63.80
32293;DHT22;43233;48.608;8.838;2024-01-27T01:42:59;3.10;64.00
32293;DHT22;43233;48.608;8.838;2024-01-27T01:45:25;3.10;64.20
32293;DHT22;43233;48.608;8.838;2024-01-27T01:47:50;3.00;64.10
32293;DHT22;43233;48.608;8.838;2024-01-27T01:50:17;3.00;64.00
32293;DHT22;43233;48.608;8.838;2024-01-27T01:52:43;3.00;63.90
32293;DHT22;43233;48.608;8.838;2024-01-27T01:55:09;3.00;64.10
32293;DHT22;43233;48.608;8.838;2024-01-27T01:57:35;2.90;64.20
32293;DHT22;43233;48.608;8.838;2024-01-27T02:00:01;2.90;64.30
32293;DHT22;43233;48.608;8.838;2024-01-27T02:02:27;2.90;64.40
32293;DHT22;43233;48.608;8.838;2024-01-27T02:04:52;2.90;64.40
32293;DHT22;43233;48.608;8.838;2024-01-27T02:07:18;2.80;64.40
32293;DHT22;43233;48.608;8.838;2024-01-27T02:09:43;2.80;64.40
32293;DHT22;43233;48.608;8.838;2024-01-27T02:12:09;2.80;64.20
32293;DHT22;43233;48.608;8.838;2024-01-27T02:14:35;2.70;64.10
32293;DHT22;43233;48.608;8.838;2024-01-27T02:17:00;2.60;64.00
32293;DHT22;43233;48.608;8.838;2024-01-27T02:19:26;2.60;64.10
32293;DHT22;43233;48.608;8.838;2024-01-27T02:21:52;2.60;64.40
32293;DHT22;43233;48.608;8.838;2024-01-27T02:24:17;2.50;64.70
32293;DHT22;43233;48.608;8.838;2024-01-27T02:26:43;2.50;64.90
32293;DHT22;43233;48.608;8.838;2024-01-27T02:29:08;2.50;64.80
32293;DHT22;43233;48.608;8.838;2024-01-27T02:31:34;2.50;64.80
32293;DHT22;43233;48.608;8.838;2024-01-27T02:34:00;2.50;64.70
32293;DHT22;43233;48.608;8.838;2024-01-27T02:36:25;2.40;64.50
32293;DHT22;43233;48.608;8.838;2024-01-27T02:38:51;2.40;64.60
32293;DHT22;43233;48.608;8.838;2024-01-27T02:41:16;2.40;64.70
32293;DHT22;43233;48.608;8.838;2024-01-27T02:43:42;2.40;64.50
32293;DHT22;43233;48.608;8.838;2024-01-27T02:46:12;2.30;64.40
32293;DHT22;43233;48.608;8.838;2024-01-27T02:48:44;2.30;64.70
32293;DHT22;43233;48.608;8.838;2024-01-27T02:51:09;2.30;64.80
32293;DHT22;43233;48.608;8.838;2024-01-27T02:53:35;2.30;64.90
32293;DHT22;43233;48.608;8.838;2024-01-27T02:56:01;2.30;64.90
32293;DHT22;43233;48.608;8.838;2024-01-27T02:58:26;2.20;64.90
32293;DHT22;43233;48.608;8.838;2024-01-27T03:00:52;2.20;65.00
32293;DHT22;43233;48.608;8.838;2024-01-27T03:03:18;2.20;65.20
32293;DHT22;43233;48.608;8.838;2024-01-27T03:05:43;2.10;65.30
32293;DHT22;43233;48.608;8.838;2024-01-27T03:08:09;2.10;65.30
32293;DHT22;43233;48.608;8.838;2024-01-27T03:10:35;2.10;65.30
32293;DHT22;43233;48.608;8.838;2024-01-27T03:13:00;2.10;65.10
32293;DHT22;43233;48.608;8.838;2024-01-27T03:15:26;2.10;65.10
32293;DHT22;43233;48.608;8.838;2024-01-27T03:17:52;2.00;65.10
32293;DHT22;43233;48.608;8.838;2024-01-27T03:20:17;2.00;65.10
32293;DHT22;43233;48.608;8.838;2024-01-27T03:22:43;2.00;65.10
32293;DHT22;43233;48.608;8.838;2024-01-27T03:25:09;1.90;65.10
32293;DHT22;43233;48.608;8.838;2024-01-27T03:27:36;1.90;65.40
32293;DHT22;43233;48.608;8.838;2024-01-27T03:30:02;1.90;65.40
32293;DHT22;43233;48.608;8.838;2024-01-27T03:32:29;1.80;65.40
32293;DHT22;43233;48.608;8.838;2024-01-27T03:35:00;1.80;65.50
32293;DHT22;43233;48.608;8.838;2024-01-27T03:37:26;1.80;65.50
32293;DHT22;43233;48.608;8.838;2024-01-27T03:39:52;1.80;65.70
32293;DHT22;43233;48.608;8.838;2024-01-27T03:42:17;1.80;65.80
32293;DHT22;43233;48.608;8.838;2024-01-27T03:44:43;1.70;65.90
32293;DHT22;43233;48.608;8.838;2024-01-27T03:47:09;1.70;65.90
32293;DHT22;43233;48.608;8.838;2024-01-27T03:49:34;1.70;65.90
32293;DHT22;43233;48.608;8.838;2024-01-27T03:52:00;1.70;66.00
32293;DHT22;43233;48.608;8.838;2024-01-27T03:54:26;1.70;66.30
32293;DHT22;43233;48.608;8.838;2024-01-27T03:56:51;1.70;66.60
32293;DHT22;43233;48.608;8.838;2024-01-27T03:59:17;1.70;66.60
32293;DHT22;43233;48.608;8.838;2024-01-27T04:01:43;1.70;66.70
32293;DHT22;43233;48.608;8.838;2024-01-27T04:04:08;1.70;66.80
32293;DHT22;43233;48.608;8.838;2024-01-27T04:06:38;1.70;66.80
32293;DHT22;43233;48.608;8.838;2024-01-27T04:09:04;1.70;67.00
32293;DHT22;43233;48.608;8.838;2024-01-27T04:11:30;1.70;67.10
32293;DHT22;43233;48.608;8.838;2024-01-27T04:13:56;1.70;67.00
32293;DHT22;43233;48.608;8.838;2024-01-27T04:16:22;1.70;67.00
32293;DHT22;43233;48.608;8.838;2024-01-27T04:18:47;1.70;66.10
32293;DHT22;43233;48.608;8.838;2024-01-27T04:21:13;1.60;65.60
32293;DHT22;43233;48.608;8.838;2024-01-27T04:23:39;1.60;66.00
32293;DHT22;43233;48.608;8.838;2024-01-27T04:26:04;1.60;66.00
32293;DHT22;43233;48.608;8.838;2024-01-27T04:28:31;1.50;66.00
32293;DHT22;43233;48.608;8.838;2024-01-27T04:30:57;1.50;66.10
32293;DHT22;43233;48.608;8.838;2024-01-27T04:33:23;1.40;65.90
32293;DHT22;43233;48.608;8.838;2024-01-27T04:35:48;1.40;66.30
32293;DHT22;43233;48.608;8.838;2024-01-27T04:38:14;1.40;66.70
32293;DHT22;43233;48.608;8.838;2024-01-27T04:40:39;1.40;66.90
32293;DHT22;43233;48.608;8.838;2024-01-27T04:43:05;1.40;67.20
32293;DHT22;43233;48.608;8.838;2024-01-27T04:45:31;1.30;67.00
32293;DHT22;43233;48.608;8.838;2024-01-27T04:47:56;1.30;66.90
32293;DHT22;43233;48.608;8.838;2024-01-27T04:50:22;1.30;66.90
32293;DHT22;43233;48.608;8.838;2024-01-27T04:52:47;1.30;67.00
32293;DHT22;43233;48.608;8.838;2024-01-27T04:55:13;1.30;67.00
32293;DHT22;43233;48.608;8.838;2024-01-27T04:57:39;1.30;67.10
32293;DHT22;43233;48.608;8.838;2024-01-27T05:00:04;1.20;67.00
32293;DHT22;43233;48.608;8.838;2024-01-27T05:02:35;1.30;67.10
32293;DHT22;43233;48.608;8.838;2024-01-27T05:05:01;1.20;67.00
32293;DHT22;43233;48.608;8.838;2024-01-27T05:07:28;1.20;66.70
32293;DHT22;43233;48.608;8.838;2024-01-27T05:09:54;1.20;66.50
32293;DHT22;43233;48.608;8.838;2024-01-27T05:12:19;1.20;66.40
32293;DHT22;43233;48.608;8.838;2024-01-27T05:14:45;1.10;66.40
32293;DHT22;43233;48.608;8.838;2024-01-27T05:17:11;1.10;66.40
32293;DHT22;43233;48.608;8.838;2024-01-27T05:19:37;1.00;66.30
32293;DHT22;43233;48.608;8.838;2024-01-27T05:22:02;1.00;66.30
32293;DHT22;43233;48.608;8.838;2024-01-27T05:24:28;1.00;66.50
32293;DHT22;43233;48.608;8.838;2024-01-27T05:26:53;0.90;66.60
32293;DHT22;43233;48.608;8.838;2024-01-27T05:29:19;0.90;66.80
32293;DHT22;43233;48.608;8.838;2024-01-27T05:31:44;0.90;67.00
32293;DHT22;43233;48.608;8.838;2024-01-27T05:34:11;0.90;66.80
32293;DHT22;43233;48.608;8.838;2024-01-27T05:36:36;0.90;66.90
32293;DHT22;43233;48.608;8.838;2024-01-27T05:39:02;0.90;67.00
32293;DHT22;43233;48.608;8.838;2024-01-27T05:41:32;0.90;66.90
32293;DHT22;43233;48.608;8.838;2024-01-27T05:43:57;0.90;66.90
32293;DHT22;43233;48.608;8.838;2024-01-27T05:46:24;0.90;66.90
32293;DHT22;43233;48.608;8.838;2024-01-27T05:48:49;0.80;66.80
32293;DHT22;43233;48.608;8.838;2024-01-27T05:51:16;0.80;66.80
32293;DHT22;43233;48.608;8.838;2024-01-27T05:53:42;0.80;66.70
32293;DHT22;43233;48.608;8.838;2024-01-27T05:56:07;0.80;66.70
32293;DHT22;43233;48.608;8.838;2024-01-27T05:58:33;0.80;67.50
32293;DHT22;43233;48.608;8.838;2024-01-27T06:00:58;0.80;66.80
32293;DHT22;43233;48.608;8.838;2024-01-27T06:03:24;0.80;66.80
32293;DHT22;43233;48.608;8.838;2024-01-27T06:05:51;0.70;66.70
32293;DHT22;43233;48.608;8.838;2024-01-27T06:08:16;0.80;66.70
32293;DHT22;43233;48.608;8.838;2024-01-27T06:10:43;0.70;66.40
32293;DHT22;43233;48.608;8.838;2024-01-27T06:13:09;0.70;66.60
32293;DHT22;43233;48.608;8.838;2024-01-27T06:15:34;0.70;66.70
32293;DHT22;43233;48.608;8.838;2024-01-27T06:18:00;0.70;66.70
32293;DHT22;43233;48.608;8.838;2024-01-27T06:20:26;0.60;66.40
32293;DHT22;43233;48.608;8.838;2024-01-27T06:22:51;0.60;66.70
32293;DHT22;43233;48.608;8.838;2024-01-27T06:25:23;0.60;66.90
32293;DHT22;43233;48.608;8.838;2024-01-27T06:27:49;0.60;66.90
32293;DHT22;43233;48.608;8.838;2024-01-27T06:30:15;0.60;66.80
32293;DHT22;43233;48.608;8.838;2024-01-27T06:32:41;0.60;66.80
32293;DHT22;43233;48.608;8.838;2024-01-27T06:35:07;0.60;66.90
32293;DHT22;43233;48.608;8.838;2024-01-27T06:37:33;0.60;66.90
32293;DHT22;43233;48.608;8.838;2024-01-27T06:39:59;0.60;67.00
32293;DHT22;43233;48.608;8.838;2024-01-27T06:42:25;0.60;67.10
32293;DHT22;43233;48.608;8.838;2024-01-27T06:44:50;0.60;67.20
32293;DHT22;43233;48.608;8.838;2024-01-27T06:47:16;0.70;67.50
32293;DHT22;43233;48.608;8.838;2024-01-27T06:49:41;0.70;67.30
32293;DHT22;43233;48.608;8.838;2024-01-27T06:52:07;0.70;67.40
32293;DHT22;43233;48.608;8.838;2024-01-27T06:54:33;0.70;67.20
32293;DHT22;43233;48.608;8.838;2024-01-27T06:57:00;0.70;67.20
32293;DHT22;43233;48.608;8.838;2024-01-27T06:59:26;0.70;67.20
32293;DHT22;43233;48.608;8.838;2024-01-27T07:01:51;0.70;67.20
32293;DHT22;43233;48.608;8.838;2024-01-27T07:04:17;0.70;67.20
32293;DHT22;43233;48.608;8.838;2024-01-27T07:06:44;0.70;67.00
32293;DHT22;43233;48.608;8.838;2024-01-27T07:09:10;0.60;66.80
32293;DHT22;43233;48.608;8.838;2024-01-27T07:11:36;0.60;66.80
32293;DHT22;43233;48.608;8.838;2024-01-27T07:14:03;0.60;67.10
32293;DHT22;43233;48.608;8.838;2024-01-27T07:16:29;0.60;67.10
32293;DHT22;43233;48.608;8.838;2024-01-27T07:18:55;0.60;67.00
32293;DHT22;43233;48.608;8.838;2024-01-27T07:21:20;0.60;67.00
32293;DHT22;43233;48.608;8.838;2024-01-27T07:23:46;0.70;67.10
32293;DHT22;43233;48.608;8.838;2024-01-27T07:26:13;0.70;67.00
32293;DHT22;43233;48.608;8.838;2024-01-27T07:28:39;0.70;67.00
32293;DHT22;43233;48.608;8.838;2024-01-27T07:31:05;0.70;67.00
32293;DHT22;43233;48.608;8.838;2024-01-27T07:33:31;0.70;67.10
32293;DHT22;43233;48.608;8.838;2024-01-27T07:35:56;0.80;67.30
32293;DHT22;43233;48.608;8.838;2024-01-27T07:38:22;1.00;67.80
32293;DHT22;43233;48.608;8.838;2024-01-27T07:40:48;1.20;67.50
32293;DHT22;43233;48.608;8.838;2024-01-27T07:43:13;1.50;66.90
32293;DHT22;43233;48.608;8.838;2024-01-27T07:45:39;1.80;66.20
32293;DHT22;43233;48.608;8.838;2024-01-27T07:48:05;2.10;65.50
32293;DHT22;43233;48.608;8.838;2024-01-27T07:50:30;2.40;62.30
32293;DHT22;43233;48.608;8.838;2024-01-27T07:52:57;2.80;61.70
32293;DHT22;43233;48.608;8.838;2024-01-27T07:55:22;3.10;59.70
32293;DHT22;43233;48.608;8.838;2024-01-27T07:57:48;3.40;58.80
32293;DHT22;43233;48.608;8.838;2024-01-27T08:00:14;3.70;58.10
32293;DHT22;43233;48.608;8.838;2024-01-27T08:02:40;3.90;57.40
32293;DHT22;43233;48.608;8.838;2024-01-27T08:05:05;4.20;55.30
32293;DHT22;43233;48.608;8.838;2024-01-27T08:07:31;4.50;54.90
32293;DHT22;43233;48.608;8.838;2024-01-27T08:09:57;4.80;53.90
32293;DHT22;43233;48.608;8.838;2024-01-27T08:12:23;5.10;52.00
32293;DHT22;43233;48.608;8.838;2024-01-27T08:14:49;5.30;50.20
32293;DHT22;43233;48.608;8.838;2024-01-27T08:17:14;5.60;49.20
32293;DHT22;43233;48.608;8.838;2024-01-27T08:19:40;5.80;48.30
32293;DHT22;43233;48.608;8.838;2024-01-27T08:22:06;6.00;47.60
32293;DHT22;43233;48.608;8.838;2024-01-27T08:24:31;6.30;47.10
32293;DHT22;43233;48.608;8.838;2024-01-27T08:26:58;6.50;45.70
32293;DHT22;43233;48.608;8.838;2024-01-27T08:29:23;6.70;43.20
32293;DHT22;43233;48.608;8.838;2024-01-27T08:31:49;6.90;42.00
32293;DHT22;43233;48.608;8.838;2024-01-27T08:34:15;6.80;41.20
32293;DHT22;43233;48.608;8.838;2024-01-27T08:36:41;6.80;40.50
32293;DHT22;43233;48.608;8.838;2024-01-27T08:39:07;6.60;40.10
32293;DHT22;43233;48.608;8.838;2024-01-27T08:41:33;6.50;41.50
32293;DHT22;43233;48.608;8.838;2024-01-27T08:43:59;6.60;40.60
32293;DHT22;43233;48.608;8.838;2024-01-27T08:46:25;6.80;41.30
32293;DHT22;43233;48.608;8.838;2024-01-27T08:48:50;7.00;41.20
32293;DHT22;43233;48.608;8.838;2024-01-27T08:51:16;7.40;39.10
32293;DHT22;43233;48.608;8.838;2024-01-27T08:53:43;7.50;38.60
32293;DHT22;43233;48.608;8.838;2024-01-27T08:56:15;7.60;39.30
32293;DHT22;43233;48.608;8.838;2024-01-27T08:58:41;7.70;39.00
32293;DHT22;43233;48.608;8.838;2024-01-27T09:01:07;7.80;37.80
32293;DHT22;43233;48.608;8.838;2024-01-27T09:03:35;7.80;38.20
32293;DHT22;43233;48.608;8.838;2024-01-27T09:06:00;7.70;38.40
32293;DHT22;43233;48.608;8.838;2024-01-27T09:08:26;7.60;37.80
32293;DHT22;43233;48.608;8.838;2024-01-27T09:10:51;7.40;39.30
32293;DHT22;43233;48.608;8.838;2024-01-27T09:13:17;7.40;39.40
32293;DHT22;43233;48.608;8.838;2024-01-27T09:15:43;7.30;39.60
32293;DHT22;43233;48.608;8.838;2024-01-27T09:18:08;7.40;39.50
32293;DHT22;43233;48.608;8.838;2024-01-27T09:20:34;7.60;39.60
32293;DHT22;43233;48.608;8.838;2024-01-27T09:22:59;7.70;39.50
32293;DHT22;43233;48.608;8.838;2024-01-27T09:25:25;8.00;39.20
32293;DHT22;43233;48.608;8.838;2024-01-27T09:27:53;8.30;38.70
32293;DHT22;43233;48.608;8.838;2024-01-27T09:30:18;8.50;38.00
32293;DHT22;43233;48.608;8.838;2024-01-27T09:32:44;8.80;36.50
32293;DHT22;43233;48.608;8.838;2024-01-27T09:35:10;8.80;37.00
32293;DHT22;43233;48.608;8.838;2024-01-27T09:37:35;9.00;36.20
32293;DHT22;43233;48.608;8.838;2024-01-27T09:40:01;9.20;36.40
32293;DHT22;43233;48.608;8.838;2024-01-27T09:42:28;9.50;35.30
32293;DHT22;43233;48.608;8.838;2024-01-27T09:44:56;9.70;34.60
32293;DHT22;43233;48.608;8.838;2024-01-27T09:47:24;9.90;34.70
32293;DHT22;43233;48.608;8.838;2024-01-27T09:49:50;10.10;33.30
32293;DHT22;43233;48.608;8.838;2024-01-27T09:52:16;10.00;31.80
32293;DHT22;43233;48.608;8.838;2024-01-27T09:54:42;9.80;32.40
32293;DHT22;43233;48.608;8.838;2024-01-27T09:57:09;9.40;33.70
32293;DHT22;43233;48.608;8.838;2024-01-27T09:59:35;9.20;34.60
32293;DHT22;43233;48.608;8.838;2024-01-27T10:02:02;9.00;35.20
32293;DHT22;43233;48.608;8.838;2024-01-27T10:04:29;8.70;35.10
32293;DHT22;43233;48.608;8.838;2024-01-27T10:06:57;8.30;36.00
32293;DHT22;43233;48.608;8.838;2024-01-27T10:09:23;8.00;37.50
32293;DHT22;43233;48.608;8.838;2024-01-27T10:11:49;7.70;38.40
32293;DHT22;43233;48.608;8.838;2024-01-27T10:14:15;7.50;39.50
32293;DHT22;43233;48.608;8.838;2024-01-27T10:16:44;7.70;40.00
32293;DHT22;43233;48.608;8.838;2024-01-27T10:19:18;7.80;40.40
32293;DHT22;43233;48.608;8.838;2024-01-27T10:21:44;8.10;38.80
32293;DHT22;43233;48.608;8.838;2024-01-27T10:24:10;8.30;38.00
32293;DHT22;43233;48.608;8.838;2024-01-27T10:26:36;8.30;37.70
32293;DHT22;43233;48.608;8.838;2024-01-27T10:29:02;8.40;37.80
32293;DHT22;43233;48.608;8.838;2024-01-27T10:31:28;8.60;38.30
32293;DHT22;43233;48.608;8.838;2024-01-27T10:33:56;9.00;37.50
32293;DHT22;43233;48.608;8.838;2024-01-27T10:36:23;9.60;35.70
32293;DHT22;43233;48.608;8.838;2024-01-27T10:38:49;10.00;35.00
32293;DHT22;43233;48.608;8.838;2024-01-27T10:41:22;10.30;34.00
32293;DHT22;43233;48.608;8.838;2024-01-27T10:43:50;10.40;33.80
32293;DHT22;43233;48.608;8.838;2024-01-27T10:46:20;10.60;33.30
32293;DHT22;43233;48.608;8.838;2024-01-27T10:48:52;10.80;33.10
32293;DHT22;43233;48.608;8.838;2024-01-27T10:51:30;11.00;32.60
32293;DHT22;43233;48.608;8.838;2024-01-27T10:54:01;11.20;32.20
32293;DHT22;43233;48.608;8.838;2024-01-27T10:56:27;11.50;31.90
32293;DHT22;43233;48.608;8.838;2024-01-27T10:58:56;11.90;31.00
32293;DHT22;43233;48.608;8.838;2024-01-27T11:01:23;12.10;30.50
32293;DHT22;43233;48.608;8.838;2024-01-27T11:03:50;12.40;29.90
32293;DHT22;43233;48.608;8.838;2024-01-27T11:06:19;12.80;29.70
32293;DHT22;43233;48.608;8.838;2024-01-27T11:08:48;13.30;30.20
32293;DHT22;43233;48.608;8.838;2024-01-27T11:11:14;13.80;28.10
32293;DHT22;43233;48.608;8.838;2024-01-27T11:13:40;14.30;26.50
32293;DHT22;43233;48.608;8.838;2024-01-27T11:16:14;14.60;26.00
32293;DHT22;43233;48.608;8.838;2024-01-27T11:18:40;14.90;24.70
32293;DHT22;43233;48.608;8.838;2024-01-27T11:21:07;15.10;23.90
32293;DHT22;43233;48.608;8.838;2024-01-27T11:23:37;15.50;24.00
32293;DHT22;43233;48.608;8.838;2024-01-27T11:26:04;15.70;23.10
32293;DHT22;43233;48.608;8.838;2024-01-27T11:28:30;15.80;22.40
32293;DHT22;43233;48.608;8.838;2024-01-27T11:30:55;16.00;23.00
32293;DHT22;43233;48.608;8.838;2024-01-27T11:33:24;16.40;23.60
32293;DHT22;43233;48.608;8.838;2024-01-27T11:36:03;16.40;22.20
32293;DHT22;43233;48.608;8.838;2024-01-27T11:38:31;16.30;22.30
32293;DHT22;43233;48.608;8.838;2024-01-27T11:40:56;16.20;22.50
32293;DHT22;43233;48.608;8.838;2024-01-27T11:43:22;16.30;22.10
32293;DHT22;43233;48.608;8.838;2024-01-27T11:46:01;16.20;22.40
32293;DHT22;43233;48.608;8.838;2024-01-27T11:48:27;16.20;22.50
32293;DHT22;43233;48.608;8.838;2024-01-27T11:51:12;16.30;22.40
32293;DHT22;43233;48.608;8.838;2024-01-27T11:53:38;16.60;20.90
32293;DHT22;43233;48.608;8.838;2024-01-27T11:56:04;17.00;21.40
32293;DHT22;43233;48.608;8.838;2024-01-27T11:58:31;17.70;20.00
32293;DHT22;43233;48.608;8.838;2024-01-27T12:00:57;18.10;18.70
32293;DHT22;43233;48.608;8.838;2024-01-27T12:03:24;18.50;18.30
32293;DHT22;43233;48.608;8.838;2024-01-27T12:05:50;19.10;17.00
32293;DHT22;43233;48.608;8.838;2024-01-27T12:08:16;19.30;17.00
32293;DHT22;43233;48.608;8.838;2024-01-27T12:10:42;19.70;16.40
32293;DHT22;43233;48.608;8.838;2024-01-27T12:13:08;19.90;15.90
32293;DHT22;43233;48.608;8.838;2024-01-27T12:15:33;20.10;16.10
32293;DHT22;43233;48.608;8.838;2024-01-27T12:17:59;20.40;16.10
32293;DHT22;43233;48.608;8.838;2024-01-27T12:20:25;20.80;15.20
32293;DHT22;43233;48.608;8.838;2024-01-27T12:23:02;20.90;14.50
32293;DHT22;43233;48.608;8.838;2024-01-27T12:25:28;21.00;14.20
32293;DHT22;43233;48.608;8.838;2024-01-27T12:27:53;21.00;15.20
32293;DHT22;43233;48.608;8.838;2024-01-27T12:30:21;21.20;15.10
32293;DHT22;43233;48.608;8.838;2024-01-27T12:32:47;21.30;15.10
32293;DHT22;43233;48.608;8.838;2024-01-27T12:35:13;21.40;15.40
32293;DHT22;43233;48.608;8.838;2024-01-27T12:37:38;21.20;14.90
32293;DHT22;43233;48.608;8.838;2024-01-27T12:40:23;21.20;15.40
32293;DHT22;43233;48.608;8.838;2024-01-27T12:42:49;21.40;14.80
32293;DHT22;43233;48.608;8.838;2024-01-27T12:45:14;21.40;14.90
32293;DHT22;43233;48.608;8.838;2024-01-27T12:47:40;21.90;14.90
32293;DHT22;43233;48.608;8.838;2024-01-27T12:50:06;22.30;14.50
32293;DHT22;43233;48.608;8.838;2024-01-27T12:52:32;22.70;14.00
32293;DHT22;43233;48.608;8.838;2024-01-27T12:54:58;23.10;13.40
32293;DHT22;43233;48.608;8.838;2024-01-27T12:57:24;23.60;13.10
32293;DHT22;43233;48.608;8.838;2024-01-27T12:59:50;23.90;12.70
32293;DHT22;43233;48.608;8.838;2024-01-27T13:02:15;24.20;12.10
32293;DHT22;43233;48.608;8.838;2024-01-27T13:04:41;24.50;11.70
32293;DHT22;43233;48.608;8.838;2024-01-27T13:07:07;24.60;11.50
32293;DHT22;43233;48.608;8.838;2024-01-27T13:09:34;24.80;10.90
32293;DHT22;43233;48.608;8.838;2024-01-27T13:11:59;24.80;11.10
32293;DHT22;43233;48.608;8.838;2024-01-27T13:14:25;25.00;9.80
32293;DHT22;43233;48.608;8.838;2024-01-27T13:16:50;25.10;10.50
32293;DHT22;43233;48.608;8.838;2024-01-27T13:19:19;25.40;10.40
32293;DHT22;43233;48.608;8.838;2024-01-27T13:21:44;26.10;9.60
32293;DHT22;43233;48.608;8.838;2024-01-27T13:24:10;26.30;8.10
32293;DHT22;43233;48.608;8.838;2024-01-27T13:26:36;26.10;7.00
32293;DHT22;43233;48.608;8.838;2024-01-27T13:29:06;25.90;6.90
32293;DHT22;43233;48.608;8.838;2024-01-27T13:31:33;25.60;7.30
32293;DHT22;43233;48.608;8.838;2024-01-27T13:33:58;25.10;7.70
32293;DHT22;43233;48.608;8.838;2024-01-27T13:36:27;24.30;8.40
32293;DHT22;43233;48.608;8.838;2024-01-27T13:38:52;23.80;8.70
32293;DHT22;43233;48.608;8.838;2024-01-27T13:41:18;23.60;9.50
32293;DHT22;43233;48.608;8.838;2024-01-27T13:43:44;23.30;9.70
32293;DHT22;43233;48.608;8.838;2024-01-27T13:46:10;22.50;10.70
32293;DHT22;43233;48.608;8.838;2024-01-27T13:48:36;21.60;11.10
32293;DHT22;43233;48.608;8.838;2024-01-27T13:51:02;20.40;12.20
32293;DHT22;43233;48.608;8.838;2024-01-27T13:53:28;19.20;13.70
32293;DHT22;43233;48.608;8.838;2024-01-27T13:55:54;18.10;14.60
32293;DHT22;43233;48.608;8.838;2024-01-27T13:58:20;17.30;15.80
32293;DHT22;43233;48.608;8.838;2024-01-27T14:00:46;16.60;16.80
32293;DHT22;43233;48.608;8.838;2024-01-27T14:03:12;16.10;17.70
32293;DHT22;43233;48.608;8.838;2024-01-27T14:05:37;15.60;18.40
32293;DHT22;43233;48.608;8.838;2024-01-27T14:08:08;15.00;19.00
32293;DHT22;43233;48.608;8.838;2024-01-27T14:10:36;14.40;19.60
32293;DHT22;43233;48.608;8.838;2024-01-27T14:13:02;13.90;20.60
32293;DHT22;43233;48.608;8.838;2024-01-27T14:15:37;13.50;21.70
32293;DHT22;43233;48.608;8.838;2024-01-27T14:18:03;13.20;23.00
32293;DHT22;43233;48.608;8.838;2024-01-27T14:20:32;13.10;23.30
32293;DHT22;43233;48.608;8.838;2024-01-27T14:23:00;13.00;24.00
32293;DHT22;43233;48.608;8.838;2024-01-27T14:25:25;12.90;24.50
32293;DHT22;43233;48.608;8.838;2024-01-27T14:27:51;12.80;24.80
32293;DHT22;43233;48.608;8.838;2024-01-27T14:30:17;12.60;25.20
32293;DHT22;43233;48.608;8.838;2024-01-27T14:32:43;12.40;25.80
32293;DHT22;43233;48.608;8.838;2024-01-27T14:35:09;12.30;26.00
32293;DHT22;43233;48.608;8.838;2024-01-27T14:37:35;12.20;26.10
32293;DHT22;43233;48.608;8.838;2024-01-27T14:40:01;12.20;26.40
32293;DHT22;43233;48.608;8.838;2024-01-27T14:42:26;12.10;26.40
32293;DHT22;43233;48.608;8.838;2024-01-27T14:44:52;12.00;26.30
32293;DHT22;43233;48.608;8.838;2024-01-27T14:47:21;11.90;26.30
32293;DHT22;43233;48.608;8.838;2024-01-27T14:49:46;11.80;26.60
32293;DHT22;43233;48.608;8.838;2024-01-27T14:52:12;11.70;26.60
32293;DHT22;43233;48.608;8.838;2024-01-27T14:54:38;11.50;26.60
32293;DHT22;43233;48.608;8.838;2024-01-27T14:57:04;11.30;26.60
32293;DHT22;43233;48.608;8.838;2024-01-27T14:59:31;11.10;26.60
32293;DHT22;43233;48.608;8.838;2024-01-27T15:01:56;11.00;26.50
32293;DHT22;43233;48.608;8.838;2024-01-27T15:04:25;10.70;26.40
32293;DHT22;43233;48.608;8.838;2024-01-27T15:06:55;10.50;27.20
32293;DHT22;43233;48.608;8.838;2024-01-27T15:09:22;10.40;27.70
32293;DHT22;43233;48.608;8.838;2024-01-27T15:11:49;10.30;27.40
32293;DHT22;43233;48.608;8.838;2024-01-27T15:14:14;10.10;27.10
32293;DHT22;43233;48.608;8.838;2024-01-27T15:16:40;9.90;27.30
32293;DHT22;43233;48.608;8.838;2024-01-27T15:19:06;9.80;28.00
32293;DHT22;43233;48.608;8.838;2024-01-27T15:21:32;9.70;28.60
32293;DHT22;43233;48.608;8.838;2024-01-27T15:23:58;9.70;29.10
32293;DHT22;43233;48.608;8.838;2024-01-27T15:26:24;9.60;29.30
32293;DHT22;43233;48.608;8.838;2024-01-27T15:28:50;9.40;29.40
32293;DHT22;43233;48.608;8.838;2024-01-27T15:31:16;9.30;29.70
32293;DHT22;43233;48.608;8.838;2024-01-27T15:33:41;9.20;30.40
32293;DHT22;43233;48.608;8.838;2024-01-27T15:36:08;9.10;36.90